createdAt,value
2023-02-19T00:00:32.929Z,6.80
2023-02-19T00:03:35.255Z,6.72
2023-02-19T00:06:37.343Z,6.53
2023-02-19T00:09:39.410Z,5.93
2023-02-19T00:12:41.399Z,6.23
2023-02-19T00:15:43.370Z,5.88
2023-02-19T00:18:45.737Z,5.72
2023-02-19T00:21:48.469Z,5.10
2023-02-19T00:24:50.489Z,4.57
2023-02-19T00:27:52.571Z,5.40
2023-02-19T00:30:54.746Z,5.47
2023-02-19T00:33:57.725Z,4.85
2023-02-19T00:36:59.746Z,5.07
2023-02-19T00:40:01.745Z,3.95
2023-02-19T00:43:03.832Z,4.13
2023-02-19T00:46:05.954Z,2.70
2023-02-19T00:49:08.715Z,3.80
2023-02-19T00:52:10.725Z,3.88
2023-02-19T00:55:12.706Z,3.05
2023-02-19T00:58:14.732Z,2.53
2023-02-19T01:01:16.974Z,3.10
2023-02-19T01:04:19.909Z,2.20
2023-02-19T01:07:21.939Z,1.88
2023-02-19T01:10:24.552Z,1.60
2023-02-19T01:13:26.672Z,2.85
2023-02-19T01:16:28.762Z,3.00
2023-02-19T01:19:30.926Z,2.97
2023-02-19T01:22:32.949Z,2.30
2023-02-19T01:25:34.974Z,2.17
2023-02-19T01:28:37.175Z,2.60
2023-02-19T01:31:39.475Z,2.58
2023-02-19T01:34:41.651Z,2.53
2023-02-19T01:37:43.607Z,2.63
2023-02-19T01:40:45.585Z,2.47
2023-02-19T01:43:55.811Z,2.30
2023-02-19T01:46:58.838Z,2.25
2023-02-19T01:50:01.162Z,3.05
2023-02-19T01:53:05.476Z,2.97
2023-02-19T01:56:08.366Z,2.03
2023-02-19T01:59:10.780Z,2.15
2023-02-19T02:02:12.902Z,2.03
2023-02-19T02:05:38.189Z,2.42
2023-02-19T02:08:59.071Z,3.00
2023-02-19T02:12:01.140Z,2.33
2023-02-19T02:15:03.209Z,2.20
2023-02-19T02:18:11.417Z,2.45
2023-02-19T02:21:33.749Z,2.40
2023-02-19T02:24:44.958Z,1.98
2023-02-19T02:28:02.335Z,2.58
2023-02-19T02:31:17.290Z,2.42
2023-02-19T02:34:23.516Z,2.30
2023-02-19T02:37:28.170Z,2.67
2023-02-19T02:40:31.400Z,2.33
2023-02-19T02:43:35.217Z,2.70
2023-02-19T02:46:41.696Z,2.55
2023-02-19T02:50:04.437Z,2.65
2023-02-19T02:53:35.184Z,3.15
2023-02-19T02:56:37.732Z,3.47
2023-02-19T02:59:41.739Z,3.38
2023-02-19T03:02:44.066Z,3.10
2023-02-19T03:05:52.902Z,3.53
2023-02-19T03:09:09.830Z,3.67
2023-02-19T03:12:33.321Z,3.45
2023-02-19T03:16:00.872Z,3.03
2023-02-19T03:19:19.211Z,2.80
2023-02-19T03:22:34.391Z,2.35
2023-02-19T03:25:56.460Z,2.67
2023-02-19T03:29:26.164Z,3.60
2023-02-19T03:32:42.390Z,2.45
2023-02-19T03:35:46.558Z,2.53
2023-02-19T03:38:52.536Z,2.58
2023-02-19T03:42:13.990Z,2.70
2023-02-19T03:45:31.165Z,2.45
2023-02-19T03:48:36.042Z,2.75
2023-02-19T03:51:50.510Z,3.10
2023-02-19T03:54:52.570Z,3.05
2023-02-19T03:57:57.583Z,2.30
2023-02-19T04:01:04.318Z,3.10
2023-02-19T04:04:09.389Z,3.27
2023-02-19T04:07:11.780Z,2.40
2023-02-19T04:10:17.562Z,2.92
2023-02-19T04:13:32.933Z,2.33
2023-02-19T04:16:37.257Z,2.43
2023-02-19T04:19:40.421Z,2.10
2023-02-19T04:22:42.595Z,2.03
2023-02-19T04:25:46.999Z,2.60
2023-02-19T04:28:49.023Z,3.10
2023-02-19T04:31:51.115Z,2.75
2023-02-19T04:34:54.400Z,2.97
2023-02-19T04:37:56.474Z,3.97
2023-02-19T04:40:58.462Z,2.80
2023-02-19T04:44:00.496Z,2.42
2023-02-19T04:47:02.513Z,3.38
2023-02-19T04:50:04.671Z,3.10
2023-02-19T04:53:07.067Z,3.72
2023-02-19T04:56:10.360Z,2.83
2023-02-19T04:59:12.718Z,2.60
2023-02-19T05:02:14.773Z,2.80
2023-02-19T05:05:16.863Z,2.50
2023-02-19T05:08:19.408Z,2.53
2023-02-19T05:11:23.798Z,2.88
2023-02-19T05:14:25.758Z,2.70
2023-02-19T05:17:27.770Z,2.88
2023-02-19T05:20:29.780Z,3.50
2023-02-19T05:23:31.796Z,2.40
2023-02-19T05:26:33.894Z,3.10
2023-02-19T05:29:35.872Z,2.33
2023-02-19T05:32:37.990Z,2.45
2023-02-19T05:35:40.932Z,2.97
2023-02-19T05:38:43.202Z,3.10
2023-02-19T05:41:45.235Z,4.97
2023-02-19T05:44:47.216Z,3.97
2023-02-19T05:47:49.390Z,2.55
2023-02-19T05:50:51.386Z,1.90
2023-02-19T05:53:53.666Z,3.10
2023-02-19T05:56:55.763Z,2.90
2023-02-19T05:59:57.751Z,3.20
2023-02-19T06:02:59.931Z,3.55
2023-02-19T06:06:03.473Z,5.50
2023-02-19T06:09:05.586Z,7.30
2023-02-19T06:12:08.209Z,8.48
2023-02-19T06:15:10.180Z,9.63
2023-02-19T06:18:12.170Z,11.57
2023-02-19T06:21:15.080Z,12.07
2023-02-19T06:24:17.175Z,13.30
2023-02-19T06:27:19.422Z,14.35
2023-02-19T06:30:21.518Z,14.00
2023-02-19T06:33:23.510Z,16.65
2023-02-19T06:36:25.564Z,15.50
2023-02-19T06:39:27.976Z,14.93
2023-02-19T06:42:33.304Z,16.13
2023-02-19T06:45:35.415Z,18.50
2023-02-19T06:48:38.923Z,19.30
2023-02-19T06:51:41.427Z,17.70
2023-02-19T06:54:43.402Z,18.45
2023-02-19T06:57:45.418Z,16.50
2023-02-19T07:00:47.499Z,17.15
2023-02-19T07:03:49.736Z,17.27
2023-02-19T07:06:51.781Z,18.42
2023-02-19T07:09:53.802Z,15.90
2023-02-19T07:12:55.799Z,18.75
2023-02-19T07:15:59.514Z,18.60
2023-02-19T07:19:01.605Z,17.03
2023-02-19T07:22:03.654Z,17.80
2023-02-19T07:25:05.771Z,18.98
2023-02-19T07:28:07.787Z,18.38
2023-02-19T07:31:10.129Z,18.20
2023-02-19T07:34:12.566Z,18.25
2023-02-19T07:37:14.514Z,17.38
2023-02-19T07:40:16.551Z,18.27
2023-02-19T07:43:19.269Z,17.38
2023-02-19T07:46:22.108Z,20.00
2023-02-19T07:49:24.088Z,18.27
2023-02-19T07:52:26.247Z,18.40
2023-02-19T07:55:28.317Z,19.17
2023-02-19T07:58:30.675Z,18.83
2023-02-19T08:01:51.126Z,15.57
2023-02-19T08:04:53.138Z,18.30
2023-02-19T08:07:55.194Z,15.57
2023-02-19T08:11:18.185Z,15.15
2023-02-19T08:14:20.238Z,16.60
2023-02-19T08:17:22.284Z,14.20
2023-02-19T08:20:24.373Z,16.10
2023-02-19T08:23:26.756Z,14.52
2023-02-19T08:26:28.742Z,13.33
2023-02-19T08:29:30.788Z,16.40
2023-02-19T08:32:32.851Z,15.80
2023-02-19T08:35:38.051Z,14.25
2023-02-19T08:38:40.060Z,13.70
2023-02-19T08:41:42.179Z,12.95
2023-02-19T08:44:44.206Z,13.95
2023-02-19T08:47:46.302Z,14.88
2023-02-19T08:50:55.094Z,15.50
2023-02-19T08:53:57.160Z,14.00
2023-02-19T08:56:59.144Z,14.13
2023-02-19T09:00:01.148Z,13.17
2023-02-19T09:03:03.146Z,10.52
2023-02-19T09:06:05.310Z,13.98
2023-02-19T09:09:07.364Z,13.50
2023-02-19T09:12:10.983Z,13.63
2023-02-19T09:15:13.011Z,16.17
2023-02-19T09:18:15.092Z,14.10
2023-02-19T09:21:17.091Z,15.32
2023-02-19T09:24:19.121Z,14.97
2023-02-19T09:27:21.150Z,17.02
2023-02-19T09:30:23.436Z,13.60
2023-02-19T09:33:25.582Z,15.43
2023-02-19T09:36:27.687Z,14.47
2023-02-19T09:39:29.869Z,14.15
2023-02-19T09:42:32.789Z,13.55
2023-02-19T09:45:35.171Z,13.98
2023-02-19T09:48:37.443Z,15.17
2023-02-19T09:51:41.470Z,12.82
2023-02-19T09:54:45.037Z,14.77
2023-02-19T09:57:47.212Z,13.82
2023-02-19T10:00:49.742Z,16.03
2023-02-19T10:03:51.765Z,14.23
2023-02-19T10:06:59.035Z,14.25
2023-02-19T10:10:02.910Z,13.60
2023-02-19T10:13:19.878Z,14.33
2023-02-19T10:16:24.952Z,13.55
2023-02-19T10:19:27.091Z,12.57
2023-02-19T10:22:30.738Z,13.95
2023-02-19T10:25:34.767Z,14.30
2023-02-19T10:28:36.804Z,15.83
2023-02-19T10:31:38.941Z,14.35
2023-02-19T10:34:40.949Z,13.68
2023-02-19T10:37:49.889Z,12.00
2023-02-19T10:41:08.655Z,12.00
2023-02-19T10:44:20.906Z,12.95
2023-02-19T10:47:23.933Z,14.02
2023-02-19T10:50:32.914Z,11.63
2023-02-19T10:53:42.599Z,11.57
2023-02-19T10:56:44.609Z,12.87
2023-02-19T10:59:50.929Z,15.32
2023-02-19T11:03:18.996Z,14.77
2023-02-19T11:06:21.902Z,14.65
2023-02-19T11:09:27.029Z,16.03
2023-02-19T11:12:33.784Z,14.77
2023-02-19T11:15:36.844Z,15.20
2023-02-19T11:18:40.945Z,20.67
2023-02-19T11:21:43.037Z,16.08
2023-02-19T11:24:48.661Z,16.53
2023-02-19T11:27:54.603Z,16.03
2023-02-19T11:31:12.641Z,14.55
2023-02-19T11:34:14.836Z,17.92
2023-02-19T11:37:17.887Z,14.18
2023-02-19T11:40:22.320Z,14.67
2023-02-19T11:43:30.552Z,12.63
2023-02-19T11:46:39.237Z,13.15
2023-02-19T11:49:44.148Z,10.23
2023-02-19T11:52:49.243Z,10.77
2023-02-19T11:56:09.784Z,7.90
2023-02-19T11:59:14.524Z,9.07
2023-02-19T12:02:28.552Z,7.18
2023-02-19T12:05:52.619Z,7.18
2023-02-19T12:09:06.763Z,8.77
2023-02-19T12:12:08.715Z,7.93
2023-02-19T12:15:29.508Z,7.77
2023-02-19T12:18:43.676Z,5.60
2023-02-19T12:22:00.621Z,4.07
2023-02-19T12:25:17.907Z,5.13
2023-02-19T12:28:33.191Z,5.10
2023-02-19T12:31:53.811Z,5.03
2023-02-19T12:35:10.844Z,6.10
2023-02-19T12:38:19.081Z,5.95
2023-02-19T12:41:36.285Z,6.00
2023-02-19T12:44:44.042Z,5.90
2023-02-19T12:47:52.345Z,6.77
2023-02-19T12:50:58.978Z,5.75
2023-02-19T12:54:07.293Z,5.60
2023-02-19T12:57:23.193Z,5.70
2023-02-19T13:00:28.768Z,6.33
2023-02-19T13:03:34.775Z,7.30
2023-02-19T13:06:41.481Z,5.97
2023-02-19T13:09:49.276Z,6.40
2023-02-19T13:12:52.022Z,5.93
2023-02-19T13:15:56.818Z,6.17
2023-02-19T13:19:02.848Z,4.80
2023-02-19T13:22:36.893Z,5.43
2023-02-19T13:25:57.615Z,5.10
2023-02-19T13:29:00.320Z,3.00
2023-02-19T13:32:02.461Z,2.10
2023-02-19T13:35:11.646Z,1.60
2023-02-19T13:38:13.963Z,1.95
2023-02-19T13:41:36.218Z,2.08
2023-02-19T13:44:40.170Z,1.48
2023-02-19T13:47:49.693Z,2.17
2023-02-19T13:51:12.139Z,1.80
2023-02-19T13:54:20.007Z,1.70
2023-02-19T13:57:23.547Z,1.10
2023-02-19T14:00:49.314Z,1.95
2023-02-19T14:03:55.635Z,2.00
2023-02-19T14:07:03.892Z,1.10
2023-02-19T14:10:11.156Z,1.20
2023-02-19T14:13:33.106Z,1.25
2023-02-19T14:16:35.152Z,1.30
2023-02-19T14:19:43.041Z,1.53
2023-02-19T14:22:47.857Z,1.50
2023-02-19T14:25:54.697Z,2.10
2023-02-19T14:28:56.930Z,1.88
2023-02-19T14:32:01.109Z,1.33
2023-02-19T14:35:03.994Z,1.40
2023-02-19T14:38:06.565Z,1.73
2023-02-19T14:41:11.063Z,0.93
2023-02-19T14:44:18.275Z,2.47
2023-02-19T14:47:21.920Z,1.30
2023-02-19T14:50:29.542Z,1.70
2023-02-19T14:53:32.214Z,1.65
2023-02-19T14:56:34.888Z,2.35
2023-02-19T14:59:36.867Z,3.33
2023-02-19T15:02:42.225Z,2.45
2023-02-19T15:05:45.372Z,1.98
2023-02-19T15:08:48.687Z,2.17
2023-02-19T15:11:51.249Z,2.20
2023-02-19T15:14:54.697Z,1.92
2023-02-19T15:17:57.748Z,2.58
2023-02-19T15:21:01.533Z,2.25
2023-02-19T15:24:05.092Z,2.23
2023-02-19T15:27:07.110Z,2.53
2023-02-19T15:30:19.236Z,1.75
2023-02-19T15:33:22.229Z,2.20
2023-02-19T15:36:31.202Z,2.00
2023-02-19T15:39:39.530Z,2.05
2023-02-19T15:42:44.239Z,2.13
2023-02-19T15:45:47.119Z,2.75
2023-02-19T15:48:52.462Z,2.30
2023-02-19T15:51:57.240Z,2.42
2023-02-19T15:55:12.306Z,2.65
2023-02-19T15:58:20.175Z,3.40
2023-02-19T16:01:25.360Z,2.20
2023-02-19T16:04:27.489Z,2.55
2023-02-19T16:07:32.022Z,3.38
2023-02-19T16:10:34.222Z,3.70
2023-02-19T16:13:36.219Z,3.47
2023-02-19T16:16:39.429Z,8.32
2023-02-19T16:19:58.150Z,10.55
2023-02-19T16:23:05.590Z,4.63
2023-02-19T16:26:07.736Z,3.65
2023-02-19T16:29:18.846Z,4.18
2023-02-19T16:32:20.940Z,3.60
2023-02-19T16:35:36.842Z,4.27
2023-02-19T16:38:39.520Z,4.95
2023-02-19T16:41:47.278Z,4.18
2023-02-19T16:44:49.365Z,4.88
2023-02-19T16:47:51.479Z,3.90
2023-02-19T16:50:53.555Z,3.03
2023-02-19T16:53:55.572Z,3.45
2023-02-19T16:56:57.563Z,3.05
2023-02-19T16:59:59.544Z,2.75
2023-02-19T17:03:08.858Z,2.40
2023-02-19T17:06:11.372Z,3.08
2023-02-19T17:09:13.386Z,2.53
2023-02-19T17:12:16.538Z,2.20
2023-02-19T17:15:18.841Z,2.83
2023-02-19T17:18:20.810Z,2.55
2023-02-19T17:21:23.084Z,2.58
2023-02-19T17:24:25.046Z,3.25
2023-02-19T17:27:27.091Z,2.30
2023-02-19T17:30:30.985Z,2.43
2023-02-19T17:33:33.048Z,2.40
2023-02-19T17:36:35.087Z,2.55
2023-02-19T17:39:37.159Z,2.70
2023-02-19T17:42:39.163Z,2.50
2023-02-19T17:45:41.348Z,8.20
2023-02-19T17:48:43.482Z,12.70
2023-02-19T17:51:45.480Z,8.97
2023-02-19T17:54:47.562Z,3.75
2023-02-19T17:57:50.309Z,2.40
2023-02-19T18:00:52.458Z,2.80
2023-02-19T18:03:54.554Z,2.40
2023-02-19T18:06:56.577Z,1.60
2023-02-19T18:09:58.578Z,1.90
2023-02-19T18:13:00.634Z,2.47
2023-02-19T18:16:02.653Z,2.00
2023-02-19T18:19:07.247Z,3.47
2023-02-19T18:22:09.359Z,3.10
2023-02-19T18:25:11.747Z,2.33
2023-02-19T18:28:14.979Z,2.83
2023-02-19T18:31:17.172Z,1.67
2023-02-19T18:34:19.519Z,1.55
2023-02-19T18:37:21.977Z,1.58
2023-02-19T18:40:26.030Z,3.37
2023-02-19T18:43:28.049Z,1.60
2023-02-19T18:46:32.247Z,1.33
2023-02-19T18:49:34.685Z,1.55
2023-02-19T18:52:36.752Z,1.80
2023-02-19T18:55:38.771Z,1.35
2023-02-19T18:58:40.766Z,1.40
2023-02-19T19:01:43.274Z,2.53
2023-02-19T19:04:49.300Z,2.65
2023-02-19T19:07:52.629Z,2.13
2023-02-19T19:10:54.681Z,2.50
2023-02-19T19:13:56.983Z,2.30
2023-02-19T19:16:59.108Z,2.00
2023-02-19T19:20:01.092Z,2.17
2023-02-19T19:23:04.943Z,2.17
2023-02-19T19:26:07.248Z,1.60
2023-02-19T19:29:09.319Z,2.28
2023-02-19T19:32:12.291Z,3.05
2023-02-19T19:35:15.724Z,2.07
2023-02-19T19:38:17.732Z,2.45
2023-02-19T19:41:20.692Z,3.03
2023-02-19T19:44:22.931Z,3.25
2023-02-19T19:47:24.945Z,2.95
2023-02-19T19:50:27.078Z,3.50
2023-02-19T19:53:29.109Z,5.30
2023-02-19T19:56:31.468Z,3.70
2023-02-19T19:59:33.470Z,2.78
2023-02-19T20:02:35.505Z,2.58
2023-02-19T20:05:37.483Z,2.77
2023-02-19T20:08:39.505Z,2.63
2023-02-19T20:11:45.622Z,3.42
2023-02-19T20:14:47.603Z,3.60
2023-02-19T20:17:49.678Z,5.15
2023-02-19T20:20:51.744Z,3.72
2023-02-19T20:23:53.733Z,3.25
2023-02-19T20:26:59.526Z,2.37
2023-02-19T20:30:01.596Z,2.20
2023-02-19T20:33:03.691Z,2.45
2023-02-19T20:36:05.956Z,2.03
2023-02-19T20:39:08.119Z,2.78
2023-02-19T20:42:10.125Z,1.70
2023-02-19T20:45:12.225Z,2.63
2023-02-19T20:48:15.019Z,3.33
2023-02-19T20:51:17.015Z,2.70
2023-02-19T20:54:20.146Z,3.08
2023-02-19T20:57:22.778Z,3.40
2023-02-19T21:00:24.844Z,3.33
2023-02-19T21:03:26.862Z,2.50
2023-02-19T21:06:28.876Z,2.23
2023-02-19T21:09:30.874Z,2.10
2023-02-19T21:12:33.723Z,2.20
2023-02-19T21:15:35.940Z,2.90
2023-02-19T21:18:39.080Z,3.00
2023-02-19T21:21:41.141Z,3.17
2023-02-19T21:24:43.168Z,2.78
2023-02-19T21:27:45.239Z,2.80
2023-02-19T21:30:47.226Z,2.10
2023-02-19T21:33:49.339Z,2.22
2023-02-19T21:36:51.456Z,2.30
2023-02-19T21:39:54.871Z,2.50
2023-02-19T21:42:56.940Z,1.67
2023-02-19T21:45:58.948Z,3.33
2023-02-19T21:49:01.443Z,2.25
2023-02-19T21:52:03.434Z,3.15
2023-02-19T21:55:05.645Z,2.38
2023-02-19T21:58:07.781Z,1.53
2023-02-19T22:01:09.770Z,1.17
2023-02-19T22:04:15.940Z,1.60
2023-02-19T22:07:17.880Z,1.50
2023-02-19T22:10:20.701Z,2.28
2023-02-19T22:13:22.769Z,2.13
2023-02-19T22:16:24.869Z,1.80
2023-02-19T22:19:26.908Z,2.03
2023-02-19T22:22:28.875Z,1.30
2023-02-19T22:25:30.853Z,1.92
2023-02-19T22:28:32.910Z,1.20
2023-02-19T22:31:35.290Z,1.38
2023-02-19T22:34:41.916Z,1.67
2023-02-19T22:37:44.012Z,1.20
2023-02-19T22:40:46.062Z,1.73
2023-02-19T22:43:48.455Z,1.48
2023-02-19T22:46:51.529Z,1.65
2023-02-19T22:49:53.549Z,1.75
2023-02-19T22:52:55.639Z,3.00
2023-02-19T22:55:57.668Z,2.42
2023-02-19T22:58:59.646Z,1.50
2023-02-19T23:02:01.715Z,1.77
2023-02-19T23:05:03.722Z,1.38
2023-02-19T23:08:05.695Z,2.17
2023-02-19T23:11:07.884Z,1.55
2023-02-19T23:14:09.913Z,1.98
2023-02-19T23:17:11.924Z,1.75
2023-02-19T23:20:14.037Z,2.38
2023-02-19T23:23:16.114Z,1.23
2023-02-19T23:26:18.644Z,2.35
2023-02-19T23:29:23.802Z,1.43
2023-02-19T23:32:26.954Z,1.75
2023-02-19T23:35:28.980Z,0.90
2023-02-19T23:38:31.005Z,1.17
2023-02-19T23:41:33.026Z,1.80
2023-02-19T23:44:34.980Z,1.35
2023-02-19T23:47:36.988Z,2.00
2023-02-19T23:50:39.023Z,1.30
2023-02-19T23:53:41.063Z,1.40
2023-02-19T23:56:43.107Z,2.22
2023-02-19T23:59:47.341Z,1.00
